Terminal Aerodrome Forecast
Issued by NWS

Current Version | Previous Version | Graphics & Text | Print | Product List | Glossary On
Versions: 1 2 3 4 5 6 7 8 9 10 11 12 13 14 15 16 17 18 19 20 21 22 23 24 25 26
000
FTUS41 KRLX 271400 AAA
TAFCKB
TAF AMD
KCKB 271459Z 2715/2812 32005KT 2SM BR OVC005
     FM271800 28007KT P6SM OVC025
     FM280300 27006KT 6SM BR BKN020
     FM280500 28006KT 4SM BR BKN020=

USA.gov is the U.S. government's official web portal to all federal, state and local government web resources and services.